Terminal Aerodrome Forecast
Issued by NWS Corpus Christi, TX

Current Version | Previous Version | Text Only | Print | Product List | Glossary Off
Versions: 1 2 3 4 5 6 7 8 9 10 11 12 13 14 15

443
FTUS44 KCRP 291121
TAFCRP
TAF
KCRP 291121Z 2912/3012 VRB05KT P6SM FEW050 SCT250
     FM291500 02011KT P6SM FEW250=

USA.gov is the U.S. government's official web portal to all federal, state and local government web resources and services.